createdAt,value
2018-12-19T00:01:41.870Z,15.63
2018-12-19T00:04:08.331Z,15.33
2018-12-19T00:06:34.699Z,15.40
2018-12-19T00:09:03.269Z,17.97
2018-12-19T00:11:29.890Z,15.60
2018-12-19T00:13:56.575Z,15.43
2018-12-19T00:16:23.164Z,15.97
2018-12-19T00:18:49.618Z,17.03
2018-12-19T00:21:16.206Z,16.53
2018-12-19T00:23:42.658Z,15.83
2018-12-19T00:26:09.261Z,16.10
2018-12-19T00:28:35.773Z,17.07
2018-12-19T00:31:02.462Z,14.80
2018-12-19T00:33:28.942Z,17.23
2018-12-19T00:35:55.314Z,16.27
2018-12-19T00:38:21.898Z,17.27
2018-12-19T00:40:48.474Z,17.30
2018-12-19T00:43:14.952Z,18.27
2018-12-19T00:45:41.430Z,17.60
2018-12-19T00:48:07.918Z,17.07
2018-12-19T00:50:34.403Z,18.47
2018-12-19T00:53:00.783Z,17.70
2018-12-19T00:55:27.270Z,17.93
2018-12-19T00:57:53.751Z,19.13
2018-12-19T01:00:20.339Z,18.37
2018-12-19T01:02:47.042Z,18.73
2018-12-19T01:05:13.515Z,18.40
2018-12-19T01:07:40.007Z,17.43
2018-12-19T01:10:06.698Z,16.33
2018-12-19T01:12:33.296Z,18.90
2018-12-19T01:14:59.876Z,19.07
2018-12-19T01:17:26.575Z,17.53
2018-12-19T01:19:53.052Z,19.33
2018-12-19T01:22:19.434Z,17.30
2018-12-19T01:24:46.022Z,19.23
2018-12-19T01:27:12.617Z,17.53
2018-12-19T01:29:39.189Z,21.23
2018-12-19T01:32:05.790Z,18.53
2018-12-19T01:34:32.297Z,20.73
2018-12-19T01:36:58.972Z,21.30
2018-12-19T01:39:25.566Z,22.90
2018-12-19T01:41:52.038Z,21.17
2018-12-19T01:44:18.506Z,20.30
2018-12-19T01:46:44.982Z,18.23
2018-12-19T01:49:11.726Z,19.63
2018-12-19T01:51:40.015Z,19.23
2018-12-19T01:54:06.722Z,19.57
2018-12-19T01:56:33.306Z,18.83
2018-12-19T01:59:00.011Z,18.00
2018-12-19T02:01:26.506Z,17.47
2018-12-19T02:03:52.991Z,17.27
2018-12-19T02:06:19.578Z,17.27
2018-12-19T02:08:45.926Z,17.80
2018-12-19T02:11:12.515Z,17.13
2018-12-19T02:13:39.554Z,17.43
2018-12-19T02:16:06.144Z,18.33
2018-12-19T02:18:32.733Z,17.70
2018-12-19T02:20:59.089Z,18.07
2018-12-19T02:23:25.694Z,16.80
2018-12-19T02:25:52.191Z,18.00
2018-12-19T02:28:18.875Z,18.07
2018-12-19T02:30:45.354Z,17.97
2018-12-19T02:33:11.729Z,18.07
2018-12-19T02:35:38.095Z,18.70
2018-12-19T02:38:04.443Z,18.87
2018-12-19T02:40:30.871Z,20.97
2018-12-19T02:42:58.102Z,21.27
2018-12-19T02:45:24.818Z,19.80
2018-12-19T02:47:51.400Z,21.83
2018-12-19T02:50:18.003Z,25.20
2018-12-19T02:52:44.619Z,22.97
2018-12-19T02:55:10.977Z,21.63
2018-12-19T02:57:37.699Z,24.90
2018-12-19T03:00:04.921Z,25.70
2018-12-19T03:02:31.414Z,23.33
2018-12-19T03:04:57.997Z,23.93
2018-12-19T03:07:24.359Z,23.47
2018-12-19T03:09:50.854Z,24.13
2018-12-19T03:12:17.342Z,21.97
2018-12-19T03:14:43.833Z,23.00
2018-12-19T03:17:10.325Z,23.10
2018-12-19T03:19:36.919Z,22.20
2018-12-19T03:22:03.522Z,20.97
2018-12-19T03:24:29.888Z,21.97
2018-12-19T03:26:56.495Z,21.93
2018-12-19T03:29:23.091Z,22.63
2018-12-19T03:31:49.704Z,22.50
2018-12-19T03:34:16.298Z,21.20
2018-12-19T03:36:42.899Z,22.17
2018-12-19T03:39:09.531Z,21.70
2018-12-19T03:41:36.235Z,22.93
2018-12-19T03:44:02.796Z,23.10
2018-12-19T03:46:29.288Z,22.80
2018-12-19T03:48:56.393Z,21.10
2018-12-19T03:51:22.982Z,21.93
2018-12-19T03:53:49.458Z,21.97
2018-12-19T03:56:15.823Z,21.60
2018-12-19T03:58:42.419Z,22.07
2018-12-19T04:01:08.895Z,21.43
2018-12-19T04:03:35.420Z,20.43
2018-12-19T04:06:02.112Z,21.23
2018-12-19T04:08:28.710Z,20.07
2018-12-19T04:10:55.199Z,21.70
2018-12-19T04:13:21.675Z,21.13
2018-12-19T04:15:48.288Z,20.10
2018-12-19T04:18:14.770Z,21.27
2018-12-19T04:20:41.386Z,20.60
2018-12-19T04:23:07.891Z,20.90
2018-12-19T04:25:34.247Z,22.03
2018-12-19T04:28:00.870Z,22.33
2018-12-19T04:30:27.568Z,20.13
2018-12-19T04:32:54.271Z,22.53
2018-12-19T04:35:20.858Z,20.43
2018-12-19T04:37:47.364Z,21.17
2018-12-19T04:40:13.743Z,20.50
2018-12-19T04:42:40.098Z,19.93
2018-12-19T04:45:06.692Z,21.47
2018-12-19T04:47:33.404Z,21.80
2018-12-19T04:50:00.006Z,19.90
2018-12-19T04:52:26.754Z,21.50
2018-12-19T04:54:53.275Z,20.83
2018-12-19T04:57:19.770Z,20.83
2018-12-19T04:59:46.259Z,21.90
2018-12-19T05:02:12.743Z,23.83
2018-12-19T05:04:39.230Z,22.33
2018-12-19T05:07:05.710Z,21.43
2018-12-19T05:09:32.186Z,21.67
2018-12-19T05:11:58.771Z,21.90
2018-12-19T05:14:25.356Z,21.33
2018-12-19T05:16:51.973Z,21.10
2018-12-19T05:19:18.687Z,21.50
2018-12-19T05:21:45.046Z,23.10
2018-12-19T05:24:11.771Z,20.30
2018-12-19T05:26:38.473Z,22.13
2018-12-19T05:29:05.083Z,21.40
2018-12-19T05:31:31.680Z,21.07
2018-12-19T05:33:58.162Z,20.77
2018-12-19T05:36:26.403Z,21.57
2018-12-19T05:38:53.302Z,25.23
2018-12-19T05:41:19.766Z,20.77
2018-12-19T05:43:46.351Z,20.10
2018-12-19T05:46:12.982Z,22.33
2018-12-19T05:48:39.895Z,21.33
2018-12-19T05:51:06.395Z,21.40
2018-12-19T05:53:33.007Z,21.03
2018-12-19T05:55:59.731Z,20.93
2018-12-19T05:58:26.255Z,20.47
2018-12-19T06:00:52.790Z,21.27
2018-12-19T06:03:19.370Z,20.67
2018-12-19T06:05:45.830Z,20.77
2018-12-19T06:08:12.417Z,19.97
2018-12-19T06:10:38.881Z,21.03
2018-12-19T06:13:05.593Z,21.13
2018-12-19T06:15:32.247Z,22.00
2018-12-19T06:17:58.850Z,20.50
2018-12-19T06:20:25.475Z,21.13
2018-12-19T06:22:52.075Z,21.57
2018-12-19T06:25:18.687Z,22.47
2018-12-19T06:27:45.046Z,20.73
2018-12-19T06:30:11.555Z,20.97
2018-12-19T06:32:38.247Z,21.57
2018-12-19T06:35:04.750Z,22.93
2018-12-19T06:37:31.343Z,22.10
2018-12-19T06:39:57.930Z,21.27
2018-12-19T06:42:24.522Z,25.20
2018-12-19T06:44:51.101Z,23.27
2018-12-19T06:47:17.719Z,21.90
2018-12-19T06:49:44.339Z,22.53
2018-12-19T06:52:10.943Z,22.23
2018-12-19T06:54:37.559Z,23.67
2018-12-19T06:57:03.928Z,22.60
2018-12-19T06:59:30.274Z,24.10
2018-12-19T07:01:56.801Z,22.77
2018-12-19T07:04:23.486Z,23.70
2018-12-19T07:06:49.991Z,22.97
2018-12-19T07:09:16.451Z,22.33
2018-12-19T07:11:43.059Z,23.33
2018-12-19T07:14:12.171Z,23.20
2018-12-19T07:16:43.483Z,21.83
2018-12-19T07:19:07.602Z,22.83
2018-12-19T07:21:34.166Z,22.23
2018-12-19T07:24:00.646Z,21.97
2018-12-19T07:26:26.998Z,22.93
2018-12-19T07:28:53.494Z,21.10
2018-12-19T07:31:20.083Z,20.97
2018-12-19T07:33:46.440Z,22.50
2018-12-19T07:36:13.769Z,21.83
2018-12-19T07:38:40.137Z,22.63
2018-12-19T07:41:06.644Z,23.70
2018-12-19T07:43:33.382Z,22.20
2018-12-19T07:45:59.974Z,22.93
2018-12-19T07:48:26.792Z,21.60
2018-12-19T07:50:53.383Z,21.40
2018-12-19T07:53:20.009Z,22.73
2018-12-19T07:55:46.806Z,21.63
2018-12-19T07:58:13.397Z,24.10
2018-12-19T08:00:40.117Z,21.57
2018-12-19T08:03:06.632Z,22.50
2018-12-19T08:05:33.130Z,21.63
2018-12-19T08:07:59.490Z,21.53
2018-12-19T08:10:26.119Z,22.47
2018-12-19T08:12:52.722Z,22.57
2018-12-19T08:15:19.427Z,20.23
2018-12-19T08:17:45.892Z,20.87
2018-12-19T08:20:12.302Z,21.73
2018-12-19T08:22:38.834Z,18.73
2018-12-19T08:25:05.534Z,21.90
2018-12-19T08:27:31.886Z,20.50
2018-12-19T08:29:58.601Z,20.70
2018-12-19T08:32:25.071Z,21.63
2018-12-19T08:34:51.678Z,18.73
2018-12-19T08:37:18.266Z,29.70
2018-12-19T08:39:44.811Z,24.40
2018-12-19T08:42:11.278Z,20.90
2018-12-19T08:44:37.759Z,20.93
2018-12-19T08:47:04.354Z,20.43
2018-12-19T08:49:30.910Z,21.37
2018-12-19T08:51:57.544Z,22.67
2018-12-19T08:54:24.178Z,21.63
2018-12-19T08:56:50.775Z,21.37
2018-12-19T08:59:17.379Z,20.30
2018-12-19T09:01:43.866Z,21.97
2018-12-19T09:04:10.458Z,21.50
2018-12-19T09:06:36.955Z,21.30
2018-12-19T09:09:04.782Z,23.33
2018-12-19T09:11:31.275Z,24.40
2018-12-19T09:13:57.888Z,24.03
2018-12-19T09:16:24.240Z,21.77
2018-12-19T09:18:50.832Z,21.70
2018-12-19T09:21:17.431Z,22.37
2018-12-19T09:23:43.785Z,22.30
2018-12-19T09:26:10.387Z,21.10
2018-12-19T09:28:36.983Z,22.13
2018-12-19T09:31:03.346Z,21.53
2018-12-19T09:33:29.944Z,22.33
2018-12-19T09:35:56.542Z,20.43
2018-12-19T09:38:23.013Z,21.13
2018-12-19T09:40:49.378Z,20.77
2018-12-19T09:43:15.971Z,21.27
2018-12-19T09:45:42.327Z,20.87
2018-12-19T09:48:09.039Z,21.63
2018-12-19T09:50:35.744Z,21.83
2018-12-19T09:53:02.349Z,21.57
2018-12-19T09:55:28.855Z,20.97
2018-12-19T09:57:55.578Z,21.37
2018-12-19T10:00:24.105Z,22.40
2018-12-19T10:02:50.707Z,21.77
2018-12-19T10:05:17.335Z,22.13
2018-12-19T10:07:43.807Z,23.47
2018-12-19T10:10:10.267Z,23.67
2018-12-19T10:12:36.651Z,22.17
2018-12-19T10:15:03.447Z,19.63
2018-12-19T10:17:30.158Z,21.83
2018-12-19T10:19:56.630Z,20.97
2018-12-19T10:22:25.035Z,21.30
2018-12-19T10:24:53.507Z,21.17
2018-12-19T10:27:21.086Z,20.47
2018-12-19T10:29:47.438Z,21.17
2018-12-19T10:32:14.185Z,20.83
2018-12-19T10:34:42.622Z,20.67
2018-12-19T10:37:09.446Z,20.97
2018-12-19T10:39:36.678Z,21.23
2018-12-19T10:42:03.882Z,21.13
2018-12-19T10:44:30.582Z,20.77
2018-12-19T10:46:57.234Z,21.37
2018-12-19T10:49:23.750Z,21.93
2018-12-19T10:51:50.330Z,21.47
2018-12-19T10:54:16.803Z,19.87
2018-12-19T10:56:43.449Z,21.97
2018-12-19T10:59:10.072Z,21.10
2018-12-19T11:01:36.660Z,21.03
2018-12-19T11:04:03.123Z,21.93
2018-12-19T11:06:29.712Z,21.93
2018-12-19T11:08:56.306Z,22.43
2018-12-19T11:11:22.787Z,23.57
2018-12-19T11:13:49.503Z,23.63
2018-12-19T11:16:15.851Z,24.30
2018-12-19T11:18:42.459Z,27.03
2018-12-19T11:21:09.182Z,27.00
2018-12-19T11:23:35.707Z,23.53
2018-12-19T11:26:02.303Z,24.17
2018-12-19T11:28:28.914Z,24.27
2018-12-19T11:30:55.517Z,24.30
2018-12-19T11:33:21.455Z,23.73
2018-12-19T11:35:47.919Z,24.77
2018-12-19T11:38:14.739Z,24.47
2018-12-19T11:40:41.541Z,25.53
2018-12-19T11:43:08.303Z,24.17
2018-12-19T11:45:34.907Z,24.60
2018-12-19T11:48:01.278Z,24.70
2018-12-19T11:50:27.799Z,26.30
2018-12-19T11:52:54.433Z,24.57
2018-12-19T11:55:20.821Z,25.27
2018-12-19T11:57:47.177Z,24.63
2018-12-19T12:00:13.806Z,26.17
2018-12-19T12:02:40.470Z,25.17
2018-12-19T12:05:07.104Z,25.93
2018-12-19T12:07:33.599Z,26.00
2018-12-19T12:10:00.242Z,25.57
2018-12-19T12:12:26.978Z,26.13
2018-12-19T12:14:53.530Z,26.13
2018-12-19T12:17:19.874Z,25.07
2018-12-19T12:19:46.234Z,27.00
2018-12-19T12:22:12.823Z,25.73
2018-12-19T12:24:39.491Z,26.57
2018-12-19T12:27:05.873Z,24.23
2018-12-19T12:29:32.367Z,24.37
2018-12-19T12:31:59.054Z,25.27
2018-12-19T12:34:27.806Z,25.63
2018-12-19T12:36:54.394Z,26.03
2018-12-19T12:39:20.930Z,25.97
2018-12-19T12:41:52.340Z,26.27
2018-12-19T12:44:16.154Z,26.50
2018-12-19T12:46:42.859Z,25.77
2018-12-19T12:49:09.446Z,25.77
2018-12-19T12:51:35.851Z,25.50
2018-12-19T12:54:02.499Z,27.77
2018-12-19T12:56:29.003Z,29.40
2018-12-19T12:58:55.578Z,26.13
2018-12-19T13:01:22.090Z,26.50
2018-12-19T13:03:48.477Z,23.63
2018-12-19T13:06:15.091Z,25.43
2018-12-19T13:08:41.682Z,26.27
2018-12-19T13:11:08.196Z,24.10
2018-12-19T13:13:34.667Z,26.70
2018-12-19T13:16:01.187Z,26.83
2018-12-19T13:18:27.679Z,26.67
2018-12-19T13:20:54.186Z,26.97
2018-12-19T13:23:20.777Z,26.43
2018-12-19T13:25:47.496Z,27.50
2018-12-19T13:28:14.012Z,26.60
2018-12-19T13:30:40.367Z,25.80
2018-12-19T13:33:06.963Z,25.40
2018-12-19T13:35:33.703Z,24.70
2018-12-19T13:38:00.176Z,26.37
2018-12-19T13:40:26.884Z,26.40
2018-12-19T13:42:53.478Z,24.97
2018-12-19T13:45:20.103Z,25.50
2018-12-19T13:47:46.574Z,25.03
2018-12-19T13:50:13.162Z,24.40
2018-12-19T13:52:39.779Z,25.53
2018-12-19T13:55:06.494Z,26.20
2018-12-19T13:57:33.091Z,24.83
2018-12-19T13:59:59.646Z,25.23
2018-12-19T14:02:26.246Z,25.43
2018-12-19T14:04:52.830Z,25.40
2018-12-19T14:07:19.555Z,26.70
2018-12-19T14:09:46.260Z,25.53
2018-12-19T14:12:12.875Z,26.40
2018-12-19T14:14:39.229Z,24.77
2018-12-19T14:17:06.398Z,26.07
2018-12-19T14:19:33.047Z,25.70
2018-12-19T14:21:59.756Z,25.27
2018-12-19T14:24:26.229Z,25.40
2018-12-19T14:26:52.835Z,26.27
2018-12-19T14:29:19.429Z,25.83
2018-12-19T14:31:45.786Z,27.63
2018-12-19T14:34:12.388Z,29.63
2018-12-19T14:36:38.974Z,29.50
2018-12-19T14:39:05.563Z,26.97
2018-12-19T14:41:32.051Z,25.87
2018-12-19T14:43:58.669Z,26.50
2018-12-19T14:46:25.330Z,26.47
2018-12-19T14:48:51.990Z,26.50
2018-12-19T14:51:18.598Z,28.93
2018-12-19T14:53:45.212Z,26.43
2018-12-19T14:56:11.798Z,26.50
2018-12-19T14:58:38.411Z,25.43
2018-12-19T15:01:05.070Z,28.80
2018-12-19T15:03:31.807Z,27.43
2018-12-19T15:05:58.408Z,26.07
2018-12-19T15:08:25.123Z,25.70
2018-12-19T15:10:51.595Z,27.83
2018-12-19T15:13:18.078Z,28.63
2018-12-19T15:15:46.451Z,26.83
2018-12-19T15:18:13.054Z,27.77
2018-12-19T15:20:39.639Z,28.50
2018-12-19T15:23:06.237Z,28.50
2018-12-19T15:25:32.879Z,29.57
2018-12-19T15:27:59.492Z,29.70
2018-12-19T15:30:26.215Z,27.63
2018-12-19T15:32:52.707Z,27.77
2018-12-19T15:35:19.223Z,31.17
2018-12-19T15:37:45.932Z,30.33
2018-12-19T15:40:12.678Z,28.57
2018-12-19T15:42:39.038Z,30.97
2018-12-19T15:45:06.579Z,28.63
2018-12-19T15:47:33.170Z,29.27
2018-12-19T15:49:59.914Z,28.87
2018-12-19T15:52:26.682Z,27.53
2018-12-19T15:54:53.207Z,26.27
2018-12-19T15:57:19.799Z,28.53
2018-12-19T15:59:46.167Z,28.43
2018-12-19T16:02:12.683Z,28.60
2018-12-19T16:04:39.174Z,28.93
2018-12-19T16:07:05.535Z,29.97
2018-12-19T16:09:33.207Z,29.87
2018-12-19T16:11:59.562Z,29.30
2018-12-19T16:14:26.160Z,37.90
2018-12-19T16:16:52.534Z,31.23
2018-12-19T16:19:19.291Z,33.53
2018-12-19T16:21:45.926Z,31.03
2018-12-19T16:24:12.519Z,30.67
2018-12-19T16:26:39.038Z,31.43
2018-12-19T16:29:05.839Z,31.57
2018-12-19T16:31:32.449Z,29.73
2018-12-19T16:33:58.919Z,32.50
2018-12-19T16:36:25.538Z,31.77
2018-12-19T16:38:52.021Z,29.77
2018-12-19T16:41:18.513Z,30.13
2018-12-19T16:43:44.858Z,30.10
2018-12-19T16:46:11.231Z,31.27
2018-12-19T16:48:37.834Z,27.63
2018-12-19T16:51:04.339Z,27.97
2018-12-19T16:53:30.958Z,30.13
2018-12-19T16:55:57.556Z,28.17
2018-12-19T16:58:24.033Z,28.37
2018-12-19T17:00:50.564Z,29.00
2018-12-19T17:03:17.147Z,27.83
2018-12-19T17:05:43.638Z,28.30
2018-12-19T17:08:10.239Z,28.20
2018-12-19T17:10:37.547Z,27.53
2018-12-19T17:13:04.954Z,27.97
2018-12-19T17:15:31.346Z,31.80
2018-12-19T17:17:58.086Z,30.97
2018-12-19T17:20:24.688Z,32.67
2018-12-19T17:22:51.299Z,31.03
2018-12-19T17:25:17.882Z,29.67
2018-12-19T17:27:44.609Z,25.93
2018-12-19T17:30:11.297Z,27.37
2018-12-19T17:32:37.892Z,27.83
2018-12-19T17:35:04.371Z,28.63
2018-12-19T17:37:30.813Z,26.17
2018-12-19T17:39:57.402Z,27.33
2018-12-19T17:42:23.890Z,28.20
2018-12-19T17:44:50.591Z,28.63
2018-12-19T17:47:17.184Z,28.60
2018-12-19T17:49:43.662Z,28.77
2018-12-19T17:52:10.343Z,27.67
2018-12-19T17:54:36.953Z,28.20
2018-12-19T17:57:21.100Z,30.90
2018-12-19T17:59:47.518Z,34.03
2018-12-19T18:02:14.852Z,40.57
2018-12-19T18:04:41.452Z,34.80
2018-12-19T18:07:08.047Z,32.53
2018-12-19T18:09:34.658Z,30.00
2018-12-19T18:12:01.126Z,29.83
2018-12-19T18:14:27.494Z,32.07
2018-12-19T18:16:54.201Z,36.30
2018-12-19T18:19:23.464Z,35.10
2018-12-19T18:21:49.450Z,33.00
2018-12-19T18:24:16.178Z,31.73
2018-12-19T18:26:42.798Z,31.27
2018-12-19T18:29:09.298Z,28.97
2018-12-19T18:31:35.650Z,29.87
2018-12-19T18:34:02.362Z,29.80
2018-12-19T18:36:28.724Z,33.27
2018-12-19T18:38:55.319Z,32.03
2018-12-19T18:41:21.791Z,30.57
2018-12-19T18:43:48.287Z,31.93
2018-12-19T18:46:14.786Z,28.63
2018-12-19T18:48:41.380Z,30.80
2018-12-19T18:51:07.967Z,28.13
2018-12-19T18:53:34.338Z,28.73
2018-12-19T18:56:00.944Z,27.80
2018-12-19T18:58:27.522Z,29.23
2018-12-19T19:00:53.887Z,29.53
2018-12-19T19:03:20.371Z,28.73
2018-12-19T19:05:46.838Z,28.43
2018-12-19T19:08:13.580Z,29.53
2018-12-19T19:10:40.591Z,30.20
2018-12-19T19:13:07.123Z,29.60
2018-12-19T19:15:33.598Z,29.37
2018-12-19T19:18:00.308Z,29.47
2018-12-19T19:20:26.902Z,28.67
2018-12-19T19:22:53.396Z,31.60
2018-12-19T19:25:19.875Z,29.90
2018-12-19T19:27:46.220Z,30.87
2018-12-19T19:30:12.709Z,29.83
2018-12-19T19:32:39.414Z,30.47
2018-12-19T19:35:06.202Z,29.13
2018-12-19T19:37:32.846Z,28.70
2018-12-19T19:39:59.440Z,28.20
2018-12-19T19:42:32.459Z,29.47
2018-12-19T19:45:03.903Z,27.33
2018-12-19T19:47:30.522Z,30.03
2018-12-19T19:49:56.919Z,27.03
2018-12-19T19:52:23.523Z,27.03
2018-12-19T19:54:50.276Z,28.13
2018-12-19T19:57:17.037Z,27.90
2018-12-19T19:59:43.774Z,28.30
2018-12-19T20:02:10.162Z,29.60
2018-12-19T20:04:36.764Z,27.60
2018-12-19T20:07:03.365Z,30.63
2018-12-19T20:09:29.964Z,29.43
2018-12-19T20:11:56.568Z,29.17
2018-12-19T20:14:23.049Z,32.33
2018-12-19T20:16:51.462Z,29.30
2018-12-19T20:19:18.062Z,28.10
2018-12-19T20:21:44.678Z,30.53
2018-12-19T20:24:11.277Z,28.90
2018-12-19T20:26:37.661Z,27.37
2018-12-19T20:29:04.270Z,26.80
2018-12-19T20:31:30.750Z,26.80
2018-12-19T20:33:57.467Z,27.93
2018-12-19T20:36:23.971Z,26.70
2018-12-19T20:38:50.633Z,26.57
2018-12-19T20:41:17.333Z,27.80
2018-12-19T20:43:43.828Z,26.43
2018-12-19T20:46:10.407Z,27.03
2018-12-19T20:48:37.002Z,28.00
2018-12-19T20:51:03.416Z,27.43
2018-12-19T20:53:29.960Z,27.57
2018-12-19T20:55:56.559Z,28.33
2018-12-19T20:58:23.054Z,27.83
2018-12-19T21:00:49.607Z,29.20
2018-12-19T21:03:16.207Z,34.80
2018-12-19T21:05:42.554Z,29.60
2018-12-19T21:08:09.138Z,28.67
2018-12-19T21:10:35.719Z,28.33
2018-12-19T21:13:02.214Z,28.03
2018-12-19T21:15:28.686Z,26.90
2018-12-19T21:17:57.103Z,26.83
2018-12-19T21:20:23.576Z,27.43
2018-12-19T21:22:50.189Z,25.50
2018-12-19T21:25:16.697Z,25.00
2018-12-19T21:27:43.048Z,26.27
2018-12-19T21:30:09.826Z,24.77
2018-12-19T21:32:36.427Z,25.13
2018-12-19T21:35:03.018Z,25.80
2018-12-19T21:37:29.627Z,27.63
2018-12-19T21:39:56.119Z,25.93
2018-12-19T21:42:22.864Z,24.83
2018-12-19T21:44:49.639Z,28.37
2018-12-19T21:47:16.131Z,26.40
2018-12-19T21:49:42.541Z,26.10
2018-12-19T21:52:08.964Z,29.37
2018-12-19T21:54:35.486Z,28.03
2018-12-19T21:57:03.025Z,26.57
2018-12-19T21:59:29.824Z,25.07
2018-12-19T22:01:56.527Z,24.23
2018-12-19T22:04:23.358Z,26.23
2018-12-19T22:06:50.016Z,24.97
2018-12-19T22:09:16.599Z,25.23
2018-12-19T22:11:43.073Z,24.60
2018-12-19T22:14:09.639Z,23.90
2018-12-19T22:16:38.919Z,24.60
2018-12-19T22:19:05.869Z,24.97
2018-12-19T22:21:32.267Z,24.80
2018-12-19T22:23:58.903Z,25.27
2018-12-19T22:26:25.588Z,23.77
2018-12-19T22:28:52.306Z,23.37
2018-12-19T22:31:18.914Z,23.77
2018-12-19T22:33:45.511Z,24.80
2018-12-19T22:36:12.182Z,23.50
2018-12-19T22:38:38.961Z,23.80
2018-12-19T22:41:05.637Z,23.73
2018-12-19T22:43:32.383Z,24.57
2018-12-19T22:45:59.125Z,23.87
2018-12-19T22:48:25.558Z,23.33
2018-12-19T22:50:52.138Z,23.67
2018-12-19T22:53:18.650Z,26.13
2018-12-19T22:55:45.271Z,22.67
2018-12-19T22:58:11.859Z,24.20
2018-12-19T23:00:41.196Z,24.87
2018-12-19T23:03:07.852Z,22.67
2018-12-19T23:05:37.082Z,23.43
2018-12-19T23:08:03.860Z,25.97
2018-12-19T23:10:30.523Z,24.77
2018-12-19T23:12:56.995Z,23.50
2018-12-19T23:15:24.234Z,23.87
2018-12-19T23:17:52.793Z,24.90
2018-12-19T23:20:19.282Z,22.70
2018-12-19T23:22:45.906Z,24.40
2018-12-19T23:25:12.757Z,23.63
2018-12-19T23:27:39.530Z,24.13
2018-12-19T23:30:06.375Z,24.80
2018-12-19T23:32:33.043Z,23.50
2018-12-19T23:34:59.810Z,24.10
2018-12-19T23:37:26.379Z,23.37
2018-12-19T23:39:52.776Z,23.40
2018-12-19T23:42:19.362Z,25.40
2018-12-19T23:44:45.966Z,24.03
2018-12-19T23:47:12.807Z,23.37
2018-12-19T23:49:39.345Z,24.30
2018-12-19T23:52:05.943Z,23.67
2018-12-19T23:54:32.614Z,24.27
2018-12-19T23:56:59.369Z,24.47
2018-12-19T23:59:26.113Z,24.67
